Time;durP1;ratioP1;P1;durP2;ratioP2;P2;SDS_P1;SDS_P2;PMS_P1;PMS_P2;Temp;Humidity;BMP_temperature;BMP_pressure;BME280_temperature;BME280_humidity;BME280_pressure;Samples;Min_cycle;Max_cycle;Signal;HPM_P1;HPM_P2
2022/04/27 00:01:41;;;;;;;;;;;10.70;90.00;;;;;;5030926;28;19924;-75
2022/04/27 00:04:06;;;;;;;;;;;10.60;90.10;;;;;;5031015;28;19913;-75
2022/04/27 00:06:32;;;;;;;;;;;10.40;90.40;;;;;;5031102;28;19912;-75
2022/04/27 00:08:57;;;;;;;;;;;10.50;90.40;;;;;;5030890;28;19909;-74
2022/04/27 00:11:23;;;;;;;;;;;10.40;90.60;;;;;;5030917;28;19913;-74
2022/04/27 00:13:48;;;;;;;;;;;10.30;90.80;;;;;;5031568;28;19909;-75
2022/04/27 00:16:14;;;;;;;;;;;10.30;90.90;;;;;;5031017;28;19924;-75
2022/04/27 00:18:40;;;;;;;;;;;10.30;90.90;;;;;;5029719;28;19961;-75
2022/04/27 00:21:05;;;;;;;;;;;10.40;91.00;;;;;;5030931;28;20295;-75
2022/04/27 00:23:32;;;;;;;;;;;10.30;91.00;;;;;;5029440;28;20298;-75
2022/04/27 00:25:58;;;;;;;;;;;10.20;91.40;;;;;;5029664;28;19915;-75
2022/04/27 00:28:24;;;;;;;;;;;10.10;91.50;;;;;;5030769;28;20439;-75
2022/04/27 00:30:49;;;;;;;;;;;10.10;91.50;;;;;;5029685;28;20509;-76
2022/04/27 00:33:15;;;;;;;;;;;9.90;92.40;;;;;;5030733;28;19967;-75
2022/04/27 00:35:41;;;;;;;;;;;9.90;92.70;;;;;;5029422;28;19999;-75
2022/04/27 00:38:06;;;;;;;;;;;9.90;92.70;;;;;;5030594;28;19952;-74
2022/04/27 00:40:32;;;;;;;;;;;9.80;92.80;;;;;;5030904;28;19917;-75
2022/04/27 00:42:59;;;;;;;;;;;9.80;92.80;;;;;;5030776;28;19909;-74
2022/04/27 00:45:24;;;;;;;;;;;9.80;92.80;;;;;;5030969;28;19924;-75
2022/04/27 00:47:50;;;;;;;;;;;9.90;92.80;;;;;;5030626;28;19909;-75
2022/04/27 00:50:15;;;;;;;;;;;9.90;92.80;;;;;;5030658;28;19921;-75
2022/04/27 00:52:42;;;;;;;;;;;9.80;93.00;;;;;;5031011;28;19992;-75
2022/04/27 00:55:08;;;;;;;;;;;9.80;93.10;;;;;;5030495;28;20366;-74
2022/04/27 00:57:33;;;;;;;;;;;9.70;93.20;;;;;;5030539;28;20010;-74
2022/04/27 00:59:59;;;;;;;;;;;9.80;93.30;;;;;;5030640;28;19913;-74
2022/04/27 01:02:24;;;;;;;;;;;9.70;93.20;;;;;;5029399;28;19927;-74
2022/04/27 01:04:50;;;;;;;;;;;9.70;93.30;;;;;;5031546;28;19920;-74
2022/04/27 01:07:16;;;;;;;;;;;9.70;93.60;;;;;;5030870;28;20429;-74
2022/04/27 01:09:42;;;;;;;;;;;9.60;93.40;;;;;;5029120;28;19914;-74
2022/04/27 01:12:08;;;;;;;;;;;9.70;93.30;;;;;;5030520;28;19909;-74
2022/04/27 01:14:43;;;;;;;;;;;9.80;93.30;;;;;;5032800;28;19915;-75
2022/04/27 01:17:09;;;;;;;;;;;9.80;93.20;;;;;;5032566;28;19909;-74
2022/04/27 01:19:35;;;;;;;;;;;9.90;93.20;;;;;;5034234;28;19911;-75
2022/04/27 01:22:01;;;;;;;;;;;9.80;93.20;;;;;;5033742;28;19915;-75
2022/04/27 01:24:27;;;;;;;;;;;9.90;93.30;;;;;;5049256;28;19952;-74
2022/04/27 01:26:53;;;;;;;;;;;9.90;93.30;;;;;;5033527;28;19940;-75
2022/04/27 01:29:20;;;;;;;;;;;9.90;93.30;;;;;;5033418;28;19916;-74
2022/04/27 01:31:45;;;;;;;;;;;9.90;93.20;;;;;;5032627;28;19951;-75
2022/04/27 01:34:11;;;;;;;;;;;9.90;93.30;;;;;;5032283;28;19952;-74
2022/04/27 01:36:37;;;;;;;;;;;9.80;93.30;;;;;;5048373;28;19999;-75
2022/04/27 01:39:02;;;;;;;;;;;9.80;93.50;;;;;;5053017;28;19909;-75
2022/04/27 01:41:28;;;;;;;;;;;9.80;93.50;;;;;;5053101;28;19913;-75
2022/04/27 01:43:53;;;;;;;;;;;9.80;93.50;;;;;;5052082;28;19962;-75
2022/04/27 01:46:19;;;;;;;;;;;9.80;93.50;;;;;;5053589;28;19904;-74
2022/04/27 01:48:44;;;;;;;;;;;9.80;93.50;;;;;;5051906;28;19912;-74
2022/04/27 01:51:11;;;;;;;;;;;9.70;93.50;;;;;;5051712;28;19977;-75
2022/04/27 01:56:21;;;;;;;;;;;9.70;93.70;;;;;;5052751;28;19996;-75
2022/04/27 01:58:46;;;;;;;;;;;9.70;93.80;;;;;;5052318;28;19996;-75
2022/04/27 02:01:12;;;;;;;;;;;9.70;93.80;;;;;;5052881;28;19913;-76
2022/04/27 02:03:39;;;;;;;;;;;9.60;93.70;;;;;;5052686;28;19944;-75
2022/04/27 02:06:05;;;;;;;;;;;9.60;93.80;;;;;;5051687;28;19917;-75
2022/04/27 02:08:31;;;;;;;;;;;9.60;93.80;;;;;;5052897;28;19909;-76
2022/04/27 02:10:56;;;;;;;;;;;9.50;93.90;;;;;;5052574;28;19923;-74
2022/04/27 02:13:23;;;;;;;;;;;9.50;94.00;;;;;;5052100;28;19901;-75
2022/04/27 02:15:48;;;;;;;;;;;9.60;94.00;;;;;;5052737;28;19936;-75
2022/04/27 02:18:14;;;;;;;;;;;9.60;93.90;;;;;;5051349;28;20240;-74
2022/04/27 02:20:39;;;;;;;;;;;9.60;93.90;;;;;;5052601;28;20396;-75
2022/04/27 02:23:04;;;;;;;;;;;9.60;93.90;;;;;;5052637;28;19959;-75
2022/04/27 02:25:30;;;;;;;;;;;9.50;94.00;;;;;;5052579;28;19897;-75
2022/04/27 02:27:56;;;;;;;;;;;9.50;94.20;;;;;;5052460;28;19912;-75
2022/04/27 02:30:21;;;;;;;;;;;9.30;94.40;;;;;;5052274;28;19913;-75
2022/04/27 02:32:47;;;;;;;;;;;9.30;94.60;;;;;;5051291;28;19992;-74
2022/04/27 02:35:14;;;;;;;;;;;9.20;94.70;;;;;;5052163;28;19912;-74
2022/04/27 02:37:39;;;;;;;;;;;9.20;94.90;;;;;;5052693;28;19974;-74
2022/04/27 02:40:05;;;;;;;;;;;9.20;94.70;;;;;;5052359;28;19925;-75
2022/04/27 02:42:31;;;;;;;;;;;9.30;94.70;;;;;;5052103;28;20335;-74
2022/04/27 02:44:57;;;;;;;;;;;9.30;94.60;;;;;;5052301;28;19912;-75
2022/04/27 02:47:22;;;;;;;;;;;9.40;94.70;;;;;;5050957;28;19916;-74
2022/04/27 02:52:32;;;;;;;;;;;9.30;94.80;;;;;;5052084;28;19920;-75
2022/04/27 02:54:57;;;;;;;;;;;9.20;94.90;;;;;;5051971;28;19931;-73
2022/04/27 02:57:23;;;;;;;;;;;9.10;95.00;;;;;;5051965;28;19966;-74
2022/04/27 02:59:49;;;;;;;;;;;9.20;95.00;;;;;;5051889;28;20014;-75
2022/04/27 03:02:14;;;;;;;;;;;9.20;94.90;;;;;;5051868;28;19923;-74
2022/04/27 03:04:40;;;;;;;;;;;9.20;95.20;;;;;;5052321;28;20230;-75
2022/04/27 03:07:05;;;;;;;;;;;9.10;95.30;;;;;;5051943;28;19915;-75
2022/04/27 03:09:31;;;;;;;;;;;9.10;95.30;;;;;;5050422;28;19999;-75
2022/04/27 03:11:57;;;;;;;;;;;9.10;95.30;;;;;;5051418;28;20323;-74
2022/04/27 03:14:22;;;;;;;;;;;9.10;95.40;;;;;;5050401;28;19909;-75
2022/04/27 03:16:48;;;;;;;;;;;9.10;95.30;;;;;;5051996;28;19911;-74
2022/04/27 03:19:14;;;;;;;;;;;9.00;95.60;;;;;;5050342;28;20009;-75
2022/04/27 03:21:40;;;;;;;;;;;8.90;95.70;;;;;;5050081;28;19940;-74
2022/04/27 03:24:05;;;;;;;;;;;8.80;95.90;;;;;;5051383;28;19916;-74
2022/04/27 03:26:31;;;;;;;;;;;8.80;95.90;;;;;;5051372;28;19953;-73
2022/04/27 03:28:57;;;;;;;;;;;8.90;96.10;;;;;;5050124;28;20003;-75
2022/04/27 03:31:23;;;;;;;;;;;8.80;95.80;;;;;;5051478;28;19999;-73
2022/04/27 03:33:49;;;;;;;;;;;8.80;96.00;;;;;;5051164;28;20067;-73
2022/04/27 03:36:14;;;;;;;;;;;8.80;96.00;;;;;;5050266;28;20282;-74
2022/04/27 03:38:41;;;;;;;;;;;8.80;96.00;;;;;;5051065;28;19908;-74
2022/04/27 03:41:06;;;;;;;;;;;8.70;96.00;;;;;;5050999;28;19920;-75
2022/04/27 03:43:32;;;;;;;;;;;8.80;96.10;;;;;;5050468;28;19904;-74
2022/04/27 03:45:57;;;;;;;;;;;8.80;96.00;;;;;;5050866;28;19916;-74
2022/04/27 03:48:23;;;;;;;;;;;8.80;96.00;;;;;;5049823;28;20386;-74
2022/04/27 03:50:48;;;;;;;;;;;8.80;96.00;;;;;;5050871;28;19923;-74
2022/04/27 03:53:14;;;;;;;;;;;8.70;96.20;;;;;;5050947;28;20316;-74
2022/04/27 03:55:39;;;;;;;;;;;8.80;96.20;;;;;;5051342;28;20325;-74
2022/04/27 03:58:05;;;;;;;;;;;8.80;96.00;;;;;;5049845;28;19919;-74
2022/04/27 04:00:31;;;;;;;;;;;8.80;96.00;;;;;;5049614;28;19955;-73
2022/04/27 04:03:00;;;;;;;;;;;8.90;95.90;;;;;;5050926;28;19944;-74
2022/04/27 04:05:26;;;;;;;;;;;8.80;96.10;;;;;;5051137;28;19919;-74
2022/04/27 04:07:55;;;;;;;;;;;8.80;96.10;;;;;;5050734;28;19979;-75
2022/04/27 04:10:21;;;;;;;;;;;8.70;96.10;;;;;;5051107;28;20058;-75
2022/04/27 04:12:46;;;;;;;;;;;8.70;96.30;;;;;;5050593;28;20390;-74
2022/04/27 04:15:15;;;;;;;;;;;8.70;96.30;;;;;;5050649;28;19959;-74
2022/04/27 04:17:44;;;;;;;;;;;8.70;96.30;;;;;;5050672;28;19909;-74
2022/04/27 04:20:11;;;;;;;;;;;8.70;96.40;;;;;;5050488;28;19905;-75
2022/04/27 04:22:36;;;;;;;;;;;8.70;96.40;;;;;;5051107;28;19905;-74
2022/04/27 04:30:30;;;;;;;;;;;8.60;96.50;;;;;;5050535;28;19963;-73
2022/04/27 04:32:55;;;;;;;;;;;8.70;96.40;;;;;;5050420;28;19916;-73
2022/04/27 04:35:21;;;;;;;;;;;8.70;96.50;;;;;;5050433;28;20429;-74
2022/04/27 04:37:46;;;;;;;;;;;8.70;96.50;;;;;;5050855;28;19913;-74
2022/04/27 04:40:12;;;;;;;;;;;8.70;96.50;;;;;;5050112;28;19924;-74
2022/04/27 04:42:37;;;;;;;;;;;8.80;96.40;;;;;;5050614;28;20219;-74
2022/04/27 04:45:03;;;;;;;;;;;8.70;96.50;;;;;;5050351;28;20223;-74
2022/04/27 04:47:30;;;;;;;;;;;8.80;96.40;;;;;;5051771;28;20282;-74
2022/04/27 04:49:55;;;;;;;;;;;8.70;96.50;;;;;;5054018;28;19993;-73
2022/04/27 04:52:21;;;;;;;;;;;8.70;96.50;;;;;;5053439;28;20327;-74
2022/04/27 04:54:46;;;;;;;;;;;8.70;96.60;;;;;;5053935;28;19919;-74
2022/04/27 04:57:12;;;;;;;;;;;8.60;96.60;;;;;;5054327;28;20331;-74
2022/04/27 04:59:37;;;;;;;;;;;8.60;96.70;;;;;;5053068;28;19991;-74
2022/04/27 05:02:03;;;;;;;;;;;8.60;96.60;;;;;;5054589;28;19923;-75
2022/04/27 05:04:28;;;;;;;;;;;8.70;96.60;;;;;;5053354;28;20007;-73
2022/04/27 05:06:54;;;;;;;;;;;8.70;96.60;;;;;;5054130;28;19920;-74
2022/04/27 05:09:19;;;;;;;;;;;8.80;96.60;;;;;;5054062;28;19921;-74
2022/04/27 05:11:45;;;;;;;;;;;8.70;96.60;;;;;;5054180;28;19909;-74
2022/04/27 05:14:10;;;;;;;;;;;8.70;96.60;;;;;;5053917;28;19963;-74
2022/04/27 05:16:36;;;;;;;;;;;8.80;96.60;;;;;;5053508;28;19909;-75
2022/04/27 05:19:02;;;;;;;;;;;8.80;96.50;;;;;;5053853;28;19995;-75
2022/04/27 05:21:28;;;;;;;;;;;8.80;96.50;;;;;;5053873;28;20330;-75
2022/04/27 05:23:53;;;;;;;;;;;8.80;96.50;;;;;;5053858;28;20360;-74
2022/04/27 05:26:19;;;;;;;;;;;8.80;96.60;;;;;;5053735;28;20330;-74
2022/04/27 05:34:12;;;;;;;;;;;8.80;96.80;;;;;;5053527;28;19920;-74
2022/04/27 05:36:38;;;;;;;;;;;8.90;96.60;;;;;;5052462;28;19909;-74
2022/04/27 05:39:03;;;;;;;;;;;9.10;96.50;;;;;;5053378;28;19909;-74
2022/04/27 05:41:29;;;;;;;;;;;9.10;96.30;;;;;;5053471;28;19916;-74
2022/04/27 05:43:54;;;;;;;;;;;9.10;96.50;;;;;;5053619;28;20349;-74
2022/04/27 05:46:20;;;;;;;;;;;8.90;96.40;;;;;;5053940;28;19900;-74
2022/04/27 05:48:45;;;;;;;;;;;9.00;96.70;;;;;;5052097;28;19967;-74
2022/04/27 05:51:11;;;;;;;;;;;9.10;96.50;;;;;;5052011;28;19919;-74
2022/04/27 05:53:36;;;;;;;;;;;9.10;96.40;;;;;;5053160;28;20003;-74
2022/04/27 05:56:05;;;;;;;;;;;9.10;96.40;;;;;;5052661;28;20345;-75
2022/04/27 05:58:30;;;;;;;;;;;9.30;96.30;;;;;;5052943;28;20058;-74
2022/04/27 06:00:56;;;;;;;;;;;9.50;96.10;;;;;;5051634;28;20214;-75
2022/04/27 06:03:21;;;;;;;;;;;9.50;95.90;;;;;;5052835;28;19940;-75
2022/04/27 06:05:47;;;;;;;;;;;9.40;95.80;;;;;;5052886;28;20343;-75
2022/04/27 06:08:12;;;;;;;;;;;9.50;95.90;;;;;;5052594;28;20530;-74
2022/04/27 06:10:38;;;;;;;;;;;9.60;95.70;;;;;;5052142;28;19915;-76
2022/04/27 06:13:03;;;;;;;;;;;9.70;95.60;;;;;;5052961;28;20544;-74
2022/04/27 06:15:29;;;;;;;;;;;9.70;95.50;;;;;;5052806;28;19913;-76
2022/04/27 06:17:55;;;;;;;;;;;9.80;95.40;;;;;;5052975;28;19908;-75
2022/04/27 06:20:20;;;;;;;;;;;9.90;95.30;;;;;;5052569;28;19909;-75
2022/04/27 06:22:46;;;;;;;;;;;9.90;95.20;;;;;;5052918;28;20304;-75
2022/04/27 06:25:11;;;;;;;;;;;10.00;94.60;;;;;;5052763;28;19909;-75
2022/04/27 06:27:37;;;;;;;;;;;10.10;94.40;;;;;;5052522;28;20628;-75
2022/04/27 06:30:03;;;;;;;;;;;10.20;94.30;;;;;;5052439;28;19923;-76
2022/04/27 06:32:29;;;;;;;;;;;10.20;94.10;;;;;;5052673;28;19909;-76
2022/04/27 06:34:54;;;;;;;;;;;10.30;94.00;;;;;;5052710;28;20007;-76
2022/04/27 06:37:20;;;;;;;;;;;10.40;94.00;;;;;;5052512;28;20058;-76
2022/04/27 06:39:45;;;;;;;;;;;10.50;93.90;;;;;;5052213;28;20070;-74
2022/04/27 06:42:11;;;;;;;;;;;10.50;93.70;;;;;;5052225;28;19909;-75
2022/04/27 06:44:36;;;;;;;;;;;10.60;93.60;;;;;;5034796;28;19931;-75
2022/04/27 06:47:03;;;;;;;;;;;10.60;93.30;;;;;;5051989;28;19904;-75
2022/04/27 06:49:29;;;;;;;;;;;10.70;93.30;;;;;;5051259;28;20246;-75
2022/04/27 06:51:54;;;;;;;;;;;10.80;93.20;;;;;;5050763;28;19923;-75
2022/04/27 06:54:20;;;;;;;;;;;11.20;93.20;;;;;;5051854;28;19920;-74
2022/04/27 06:56:45;;;;;;;;;;;11.60;92.50;;;;;;5052195;28;19909;-74
2022/04/27 06:59:11;;;;;;;;;;;12.10;91.90;;;;;;5050843;28;19908;-75
2022/04/27 07:01:36;;;;;;;;;;;12.60;90.80;;;;;;5052326;28;20012;-75
2022/04/27 07:04:07;;;;;;;;;;;13.40;90.70;;;;;;5051962;28;19955;-74
2022/04/27 07:06:33;;;;;;;;;;;13.70;88.90;;;;;;5051986;28;19917;-75
2022/04/27 07:08:59;;;;;;;;;;;14.10;86.50;;;;;;5051736;28;19909;-74
2022/04/27 07:11:25;;;;;;;;;;;14.00;85.50;;;;;;5051652;28;19979;-75
2022/04/27 07:13:50;;;;;;;;;;;13.90;85.30;;;;;;5051670;28;19947;-72
2022/04/27 07:16:17;;;;;;;;;;;14.40;87.00;;;;;;5052081;28;19901;-74
2022/04/27 07:18:42;;;;;;;;;;;14.80;83.70;;;;;;5051766;28;19951;-75
2022/04/27 07:21:08;;;;;;;;;;;15.10;83.20;;;;;;5051830;28;20347;-74
2022/04/27 07:23:34;;;;;;;;;;;15.30;81.60;;;;;;5051943;28;19958;-75
2022/04/27 07:25:59;;;;;;;;;;;15.30;81.80;;;;;;5050722;28;20253;-75
2022/04/27 07:28:25;;;;;;;;;;;15.40;80.90;;;;;;5052204;28;19908;-75
2022/04/27 07:30:50;;;;;;;;;;;15.50;81.30;;;;;;5050521;28;19913;-75
2022/04/27 07:33:16;;;;;;;;;;;16.00;81.30;;;;;;5051165;28;20003;-75
2022/04/27 07:35:42;;;;;;;;;;;16.50;78.90;;;;;;5051186;28;19920;-75
2022/04/27 07:38:07;;;;;;;;;;;16.90;77.90;;;;;;5050190;28;19947;-74
2022/04/27 07:40:33;;;;;;;;;;;17.50;75.90;;;;;;5051590;28;19912;-75
2022/04/27 07:42:59;;;;;;;;;;;18.00;74.20;;;;;;5050320;28;19913;-75
2022/04/27 07:45:25;;;;;;;;;;;18.60;72.20;;;;;;5051239;28;19912;-76
2022/04/27 07:47:50;;;;;;;;;;;19.20;71.00;;;;;;5051205;28;19913;-75
2022/04/27 07:50:16;;;;;;;;;;;19.30;67.20;;;;;;5051221;28;19927;-75
2022/04/27 07:52:43;;;;;;;;;;;19.70;68.30;;;;;;5051629;28;19916;-75
2022/04/27 07:55:09;;;;;;;;;;;19.90;65.00;;;;;;5050082;28;19944;-76
2022/04/27 07:57:35;;;;;;;;;;;20.40;65.40;;;;;;5051274;28;19924;-75
2022/04/27 08:00:03;;;;;;;;;;;20.80;63.70;;;;;;5051125;28;19909;-76
2022/04/27 08:02:28;;;;;;;;;;;21.50;61.10;;;;;;5050947;28;19909;-75
2022/04/27 08:04:54;;;;;;;;;;;21.10;59.70;;;;;;5051586;28;20386;-76
2022/04/27 08:07:19;;;;;;;;;;;21.80;60.40;;;;;;5051451;28;19931;-76
2022/04/27 08:09:45;;;;;;;;;;;22.50;58.90;;;;;;5050854;28;19917;-76
2022/04/27 08:12:10;;;;;;;;;;;22.90;57.60;;;;;;5050773;28;19928;-75
2022/04/27 08:14:36;;;;;;;;;;;23.30;56.70;;;;;;5051127;28;19992;-75
2022/04/27 08:17:02;;;;;;;;;;;23.80;55.40;;;;;;5051180;28;19905;-75
2022/04/27 08:19:28;;;;;;;;;;;24.20;53.80;;;;;;5051181;28;19909;-75
2022/04/27 08:21:54;;;;;;;;;;;24.60;52.50;;;;;;5050626;28;19908;-75
2022/04/27 08:24:21;;;;;;;;;;;24.80;52.30;;;;;;5053574;28;20521;-74
2022/04/27 08:26:46;;;;;;;;;;;25.20;51.50;;;;;;5054853;28;19909;-75
2022/04/27 08:29:12;;;;;;;;;;;25.30;50.10;;;;;;5054720;28;19915;-75
2022/04/27 08:31:37;;;;;;;;;;;25.00;50.10;;;;;;5055083;28;19909;-75
2022/04/27 08:34:03;;;;;;;;;;;25.20;50.30;;;;;;5053505;28;20235;-75
2022/04/27 08:36:28;;;;;;;;;;;25.70;49.00;;;;;;5054751;28;19973;-75
2022/04/27 08:38:54;;;;;;;;;;;25.60;48.10;;;;;;5054744;28;20003;-74
2022/04/27 08:41:20;;;;;;;;;;;25.40;48.30;;;;;;5053192;28;19921;-75
2022/04/27 08:43:45;;;;;;;;;;;26.10;47.00;;;;;;5054977;28;19920;-75
2022/04/27 08:46:12;;;;;;;;;;;25.60;47.10;;;;;;5054431;28;20368;-74
2022/04/27 08:48:38;;;;;;;;;;;26.40;46.00;;;;;;5054369;28;19913;-75
2022/04/27 08:51:08;;;;;;;;;;;26.60;46.00;;;;;;5054283;28;19928;-73
2022/04/27 08:53:34;;;;;;;;;;;26.70;45.20;;;;;;5054225;28;19930;-75
2022/04/27 08:56:00;;;;;;;;;;;27.10;44.60;;;;;;5054304;28;20154;-74
2022/04/27 08:58:25;;;;;;;;;;;27.40;44.20;;;;;;5054775;28;19984;-75
2022/04/27 09:00:51;;;;;;;;;;;27.40;43.90;;;;;;5054414;28;19919;-75
2022/04/27 09:03:27;;;;;;;;;;;27.50;43.90;;;;;;5054224;28;19913;-75
2022/04/27 09:06:00;;;;;;;;;;;27.80;42.70;;;;;;5054309;28;19908;-75
2022/04/27 09:08:45;;;;;;;;;;;28.00;42.40;;;;;;5054349;28;19909;-75
2022/04/27 09:11:26;;;;;;;;;;;27.80;42.90;;;;;;5053534;28;19929;-75
2022/04/27 09:13:53;;;;;;;;;;;28.00;41.30;;;;;;5053916;28;19905;-76
2022/04/27 09:16:21;;;;;;;;;;;28.10;40.20;;;;;;5054469;28;19897;-75
2022/04/27 09:21:54;;;;;;;;;;;27.60;39.60;;;;;;5054141;28;19935;-75
2022/04/27 09:24:20;;;;;;;;;;;28.10;39.50;;;;;;5054118;28;19912;-76
2022/04/27 09:26:45;;;;;;;;;;;28.40;39.70;;;;;;5054105;28;19927;-76
2022/04/27 09:29:23;;;;;;;;;;;27.90;40.50;;;;;;5053743;28;19936;-77
2022/04/27 09:31:55;;;;;;;;;;;28.50;40.40;;;;;;5054357;28;19908;-76
2022/04/27 09:34:29;;;;;;;;;;;28.40;40.00;;;;;;5052845;28;19912;-75
2022/04/27 09:37:04;;;;;;;;;;;28.50;40.50;;;;;;5053563;28;19966;-76
2022/04/27 09:39:30;;;;;;;;;;;29.20;39.80;;;;;;5052373;28;20260;-77
2022/04/27 09:42:05;;;;;;;;;;;29.60;38.70;;;;;;5053713;28;19908;-76
2022/04/27 09:44:34;;;;;;;;;;;29.60;38.10;;;;;;5053798;28;19920;-75
2022/04/27 09:47:03;;;;;;;;;;;29.20;36.70;;;;;;5053571;28;19908;-76
2022/04/27 09:49:32;;;;;;;;;;;28.70;36.80;;;;;;5053706;28;20329;-76
2022/04/27 09:51:59;;;;;;;;;;;28.20;38.00;;;;;;5053326;28;19912;-75
2022/04/27 09:54:25;;;;;;;;;;;28.40;37.40;;;;;;5052119;28;20004;-76
2022/04/27 09:56:54;;;;;;;;;;;29.60;37.10;;;;;;5053664;28;19935;-76
2022/04/27 09:59:21;;;;;;;;;;;29.50;36.70;;;;;;5053417;28;19970;-75
2022/04/27 10:01:47;;;;;;;;;;;29.60;36.70;;;;;;5053613;28;20270;-76
2022/04/27 10:04:13;;;;;;;;;;;29.30;37.00;;;;;;5053052;28;19912;-75
2022/04/27 10:06:40;;;;;;;;;;;29.30;36.90;;;;;;5053160;28;19909;-77
2022/04/27 10:09:05;;;;;;;;;;;29.30;36.90;;;;;;5053093;28;19963;-75
2022/04/27 10:11:32;;;;;;;;;;;29.30;37.70;;;;;;5052861;28;20370;-75
2022/04/27 10:13:57;;;;;;;;;;;28.40;36.30;;;;;;5053104;28;19967;-75
2022/04/27 10:16:24;;;;;;;;;;;26.70;37.90;;;;;;5053246;28;20526;-75
2022/04/27 10:18:50;;;;;;;;;;;26.50;38.70;;;;;;5053199;28;19912;-76
2022/04/27 10:21:39;;;;;;;;;;;26.20;38.30;;;;;;5051599;28;19912;-75
2022/04/27 10:24:05;;;;;;;;;;;26.30;38.50;;;;;;5052630;28;19912;-74
2022/04/27 10:26:30;;;;;;;;;;;27.10;38.50;;;;;;5052652;28;20566;-75
2022/04/27 10:29:00;;;;;;;;;;;27.10;38.40;;;;;;5052578;28;20043;-74
2022/04/27 10:31:40;;;;;;;;;;;26.70;38.90;;;;;;5053215;28;19971;-74
2022/04/27 10:34:19;;;;;;;;;;;25.80;38.90;;;;;;5051425;28;19916;-74
2022/04/27 10:36:47;;;;;;;;;;;25.60;39.80;;;;;;5052433;28;19920;-74
2022/04/27 10:39:12;;;;;;;;;;;24.90;40.80;;;;;;5052259;28;19974;-75
2022/04/27 10:41:38;;;;;;;;;;;24.70;41.50;;;;;;5050997;28;19924;-75
2022/04/27 10:44:04;;;;;;;;;;;23.90;42.40;;;;;;5051182;28;19909;-74
2022/04/27 10:46:38;;;;;;;;;;;23.50;43.30;;;;;;5052397;28;19912;-74
2022/04/27 10:49:23;;;;;;;;;;;23.10;43.30;;;;;;5052095;28;19908;-75
2022/04/27 10:52:01;;;;;;;;;;;22.40;42.70;;;;;;5052190;28;19917;-74
2022/04/27 10:54:28;;;;;;;;;;;22.60;43.70;;;;;;5051966;28;19936;-75
2022/04/27 10:56:53;;;;;;;;;;;22.70;44.00;;;;;;5052032;28;19996;-75
2022/04/27 10:59:38;;;;;;;;;;;22.60;44.10;;;;;;5052014;28;19975;-73
2022/04/27 11:02:03;;;;;;;;;;;22.40;43.70;;;;;;5051987;28;20402;-74
2022/04/27 11:04:32;;;;;;;;;;;22.40;44.10;;;;;;5052277;28;20350;-75
2022/04/27 11:07:15;;;;;;;;;;;22.20;44.50;;;;;;5050785;28;20007;-75
2022/04/27 11:09:43;;;;;;;;;;;22.20;44.90;;;;;;5051754;28;19919;-73
2022/04/27 11:12:10;;;;;;;;;;;21.80;45.60;;;;;;5051763;28;19909;-74
2022/04/27 11:14:36;;;;;;;;;;;21.20;46.20;;;;;;5050729;28;20313;-74
2022/04/27 11:17:01;;;;;;;;;;;21.20;46.50;;;;;;5051755;28;20010;-74
2022/04/27 11:19:34;;;;;;;;;;;21.30;47.40;;;;;;5052041;28;20479;-75
2022/04/27 11:22:10;;;;;;;;;;;21.00;47.30;;;;;;5051584;28;19919;-75
2022/04/27 11:24:36;;;;;;;;;;;21.10;47.40;;;;;;5050449;28;19916;-75
2022/04/27 11:27:01;;;;;;;;;;;21.00;47.30;;;;;;5051611;28;19909;-74
2022/04/27 11:29:27;;;;;;;;;;;21.10;47.20;;;;;;5051210;28;19923;-73
2022/04/27 11:31:52;;;;;;;;;;;21.00;47.30;;;;;;5051495;28;19909;-75
2022/04/27 11:34:21;;;;;;;;;;;20.90;47.00;;;;;;5051747;28;19909;-75
2022/04/27 11:36:47;;;;;;;;;;;20.90;47.80;;;;;;5050178;28;19909;-74
2022/04/27 11:39:18;;;;;;;;;;;20.70;48.10;;;;;;5051173;28;19923;-75
2022/04/27 11:41:44;;;;;;;;;;;20.60;48.30;;;;;;5051416;28;19916;-75
2022/04/27 11:44:09;;;;;;;;;;;20.30;48.50;;;;;;5043460;28;19928;-74
2022/04/27 11:46:35;;;;;;;;;;;20.40;48.80;;;;;;5064896;28;19915;-73
2022/04/27 11:49:01;;;;;;;;;;;20.20;49.00;;;;;;5050976;28;20344;-74
2022/04/27 11:51:26;;;;;;;;;;;20.10;49.90;;;;;;5051066;28;19917;-74
2022/04/27 11:53:52;;;;;;;;;;;20.10;49.80;;;;;;5051109;28;19948;-73
2022/04/27 11:56:18;;;;;;;;;;;20.20;50.00;;;;;;5050735;28;19948;-73
2022/04/27 11:58:48;;;;;;;;;;;20.10;49.70;;;;;;5051042;28;19911;-74
2022/04/27 12:01:21;;;;;;;;;;;19.80;49.80;;;;;;5050904;28;19970;-75
2022/04/27 12:03:49;;;;;;;;;;;19.80;49.90;;;;;;5051060;28;19944;-75
2022/04/27 12:06:27;;;;;;;;;;;19.80;49.80;;;;;;5051089;28;20011;-74
2022/04/27 12:08:58;;;;;;;;;;;19.90;50.30;;;;;;5049336;28;19940;-74
2022/04/27 12:11:24;;;;;;;;;;;20.10;49.70;;;;;;5051001;28;19924;-74
2022/04/27 12:13:51;;;;;;;;;;;20.00;49.60;;;;;;5051327;28;19908;-74
2022/04/27 12:16:17;;;;;;;;;;;19.80;49.30;;;;;;5050955;28;19919;-75
2022/04/27 12:19:00;;;;;;;;;;;19.70;49.50;;;;;;5050952;28;19909;-74
2022/04/27 12:21:27;;;;;;;;;;;19.40;49.50;;;;;;5049603;28;19913;-74
2022/04/27 12:23:56;;;;;;;;;;;19.20;49.80;;;;;;5050620;28;19909;-74
2022/04/27 12:26:25;;;;;;;;;;;19.40;49.10;;;;;;5050379;28;19931;-74
2022/04/27 12:28:51;;;;;;;;;;;19.40;48.50;;;;;;5050545;28;19908;-74
2022/04/27 12:31:19;;;;;;;;;;;19.50;48.30;;;;;;5049968;28;19909;-73
2022/04/27 12:33:48;;;;;;;;;;;19.40;48.50;;;;;;5049525;28;19913;-74
2022/04/27 12:39:02;;;;;;;;;;;19.20;48.40;;;;;;5050888;28;20305;-74
2022/04/27 12:41:29;;;;;;;;;;;19.30;48.60;;;;;;5050356;28;19921;-73
2022/04/27 12:44:01;;;;;;;;;;;19.30;48.60;;;;;;5050471;28;20360;-73
2022/04/27 12:46:26;;;;;;;;;;;19.30;48.90;;;;;;5050923;28;19897;-75
2022/04/27 12:49:02;;;;;;;;;;;19.30;49.10;;;;;;5050573;28;19920;-73
2022/04/27 12:51:35;;;;;;;;;;;19.30;48.90;;;;;;5050445;28;19982;-74
2022/04/27 12:54:01;;;;;;;;;;;19.30;48.90;;;;;;5050394;28;19924;-74
2022/04/27 12:56:33;;;;;;;;;;;19.30;48.60;;;;;;5050277;28;19931;-74
2022/04/27 12:59:05;;;;;;;;;;;18.80;48.40;;;;;;5050547;28;19905;-74
2022/04/27 13:01:31;;;;;;;;;;;19.00;49.20;;;;;;5050641;28;20310;-73
2022/04/27 13:03:57;;;;;;;;;;;19.30;49.10;;;;;;5049342;28;19967;-75
2022/04/27 13:06:22;;;;;;;;;;;19.10;48.70;;;;;;5050464;28;19962;-74
2022/04/27 13:08:50;;;;;;;;;;;19.20;48.90;;;;;;5051920;28;20326;-74
2022/04/27 13:14:01;;;;;;;;;;;18.90;49.80;;;;;;5054612;28;19966;-73
2022/04/27 13:16:26;;;;;;;;;;;18.80;49.90;;;;;;5054553;28;19904;-74
2022/04/27 13:18:52;;;;;;;;;;;18.80;50.60;;;;;;5052966;28;19909;-74
2022/04/27 13:21:17;;;;;;;;;;;18.80;51.00;;;;;;5054203;28;20637;-74
2022/04/27 13:23:44;;;;;;;;;;;18.90;51.10;;;;;;5054138;28;20007;-74
2022/04/27 13:26:09;;;;;;;;;;;18.70;51.20;;;;;;5054134;28;19953;-74
2022/04/27 13:28:40;;;;;;;;;;;18.80;51.30;;;;;;5054276;28;19966;-75
2022/04/27 13:31:08;;;;;;;;;;;18.50;52.00;;;;;;5053603;28;20234;-74
2022/04/27 13:33:34;;;;;;;;;;;18.50;52.40;;;;;;5053695;28;19908;-75
2022/04/27 13:35:59;;;;;;;;;;;18.50;52.10;;;;;;5053622;28;20007;-72
2022/04/27 13:38:27;;;;;;;;;;;18.50;51.80;;;;;;5052592;28;19913;-74
2022/04/27 13:40:54;;;;;;;;;;;18.20;51.90;;;;;;5053415;28;19961;-73
2022/04/27 13:43:22;;;;;;;;;;;18.30;52.30;;;;;;5053918;28;20014;-74
2022/04/27 13:45:48;;;;;;;;;;;18.10;52.40;;;;;;5052198;28;19913;-75
2022/04/27 13:48:13;;;;;;;;;;;18.20;52.50;;;;;;5053417;28;19966;-74
2022/04/27 13:50:42;;;;;;;;;;;18.30;52.40;;;;;;5053362;28;20327;-73
2022/04/27 13:53:08;;;;;;;;;;;18.50;52.40;;;;;;5052207;28;19908;-74
2022/04/27 13:55:35;;;;;;;;;;;18.60;51.90;;;;;;5054977;28;19901;-72
2022/04/27 13:58:02;;;;;;;;;;;18.40;52.10;;;;;;5053038;28;20400;-73
2022/04/27 14:00:27;;;;;;;;;;;18.40;52.30;;;;;;5055640;28;19992;-74
2022/04/27 14:02:53;;;;;;;;;;;18.40;52.50;;;;;;5055882;28;19936;-74
2022/04/27 14:05:19;;;;;;;;;;;18.50;52.40;;;;;;5059360;28;19968;-73
2022/04/27 14:07:45;;;;;;;;;;;18.60;52.20;;;;;;5061144;28;19904;-73
2022/04/27 14:10:11;;;;;;;;;;;18.60;52.10;;;;;;5054289;28;19954;-74
2022/04/27 14:15:22;;;;;;;;;;;18.90;52.00;;;;;;5052993;28;20591;-74
2022/04/27 14:20:31;;;;;;;;;;;18.70;51.90;;;;;;5052540;28;20341;-75
2022/04/27 14:22:57;;;;;;;;;;;18.60;51.90;;;;;;5051680;28;19908;-74
2022/04/27 14:25:23;;;;;;;;;;;18.60;51.90;;;;;;5053861;28;19916;-74
2022/04/27 14:27:49;;;;;;;;;;;18.50;51.80;;;;;;5053236;28;19963;-74
2022/04/27 14:30:15;;;;;;;;;;;18.40;52.00;;;;;;5052760;28;19965;-75
2022/04/27 14:32:41;;;;;;;;;;;18.50;51.90;;;;;;5053026;28;20214;-75
2022/04/27 14:35:06;;;;;;;;;;;18.50;51.40;;;;;;5052417;28;20343;-75
2022/04/27 14:37:32;;;;;;;;;;;18.30;51.90;;;;;;5052658;28;19940;-74
2022/04/27 14:39:57;;;;;;;;;;;18.30;52.10;;;;;;5052108;28;19920;-74
2022/04/27 14:42:23;;;;;;;;;;;18.30;52.40;;;;;;5052569;28;19923;-75
2022/04/27 14:44:48;;;;;;;;;;;18.30;52.60;;;;;;5052218;28;19995;-75
2022/04/27 14:47:14;;;;;;;;;;;18.20;52.30;;;;;;5052194;28;19917;-74
2022/04/27 14:49:40;;;;;;;;;;;18.20;52.30;;;;;;5052451;28;19939;-74